Historyczne dane pomiarowe

Dodano dane terminowe – wersja testowa.

Dane z okresu 1951-2019

Wersja bazy: 1.34 [2019-03-16, lista zmian], aktualizacja planowana na 2019-04-15

Dane meteo z obszaru Polski uzyskane na podstawie danych udostępnionych przez Instytut Meteorologii i Gospodarki Wodnej – Państwowy Instytut Badawczy.

 

Wybierz Datę:    

       

TemperaturaWilgotnośćWiatrCiśnienieOpadyŚniegCzas trwania zjawisk
 Stacja t tx tn tng RH VA  wxwx mslp ppp RRR   cm mm wxwxwxwxwxwxwx
1984-05-15 12.1 16.2 10.5- 95.3- 6.7 1.0---- 15.2------------
1984-05-16 15.4 22.7 6.8- 71.5- 0.3 3.0---- 0.0------------
1984-05-17 18.9 23.3 14.7- 64.0- 2.7 2.0---- 0.0------------
1984-05-18 15.2 22.4 10.1- 75.5- 3.3 1.0---- 0.3------------
1984-05-19 15.6 21.7 4.7- 74.8- 1.0 1.0---- 0.0------------
1984-05-20 17.6 24.7 9.3- 71.5- 2.0 1.3---- 0.0------------
1984-05-21 16.3 21.2 12.9- 74.8- 6.0 3.3---- 0.4------------
1984-05-22 13.7 17.9 11.0- 80.5- 5.0 1.0---- 4.3------------
1984-05-23 13.0 18.1 10.0- 86.8- 6.0 1.7---- 14.7------------
1984-05-24 10.8 17.2 7.5- 84.8- 4.3 2.0---- 0.0------------
1984-05-25 10.4 17.1 5.7- 84.0- 2.7 1.0---- 0.0------------
1984-05-26 12.9 19.4 5.7- 77.5- 2.3 1.7---- 0.0------------
1984-05-27 14.9 21.4 5.8- 72.8- 0.7 2.0---- 0.0------------
1984-05-28 15.4 22.1 9.1- 74.8- 4.7 1.0---- 6.3------------
1984-05-29 13.7 17.2 11.4- 90.8- 7.3 1.3---- 6.9------------
1984-05-30 12.0 15.8 7.1- 96.0- 7.3 1.0---- 3.1------------
1984-05-31 14.2 20.7 6.7- 77.3- 2.0 0.7---- 0.0------------
1984-06-01 15.7 20.3 8.6- 80.5- 3.0 0.0---- 0.2------------
1984-06-02 16.9 23.8 9.4- 73.5- 1.0 1.7---- 0.0------------
1984-06-03 18.6 24.7 9.7- 71.5- 2.7 1.7---- 0.0------------
1984-06-04 17.7 23.6 14.8- 83.8- 5.3 3.3---- 0.0------------
1984-06-05 17.4 23.2 13.0- 74.5- 4.0 1.0---- 0.0------------
1984-06-06 16.1 22.4 10.0- 84.3- 4.7 2.3---- 5.9------------
1984-06-07 12.7 20.8 7.8- 74.5- 5.0 1.3---- 5.1------------
1984-06-08 12.7 20.8 7.4- 82.8- 4.7 2.7---- 1.0------------
1984-06-09 11.6 15.8 8.9- 84.3- 6.7 2.3---- 0.8------------
1984-06-10 11.6 15.2 9.2- 88.0- 7.3 3.0---- 0.9------------
1984-06-11 10.8 14.5 7.9- 79.8- 6.0 2.7---- 0.7------------
1984-06-12 9.9 14.9 4.3- 67.0- 3.7 1.3---- 0.0------------
1984-06-13 10.8 18.4 0.2- 66.3- 3.7 1.0---- 1.3------------
301.5 ms

 

Źródłem pochodzenia danych jest Instytut Meteorologii i Gospodarki Wodnej – Państwowy Instytut Badawczy. Dane Instytutu Meteorologii i Gospodarki Wodnej – Państwowego Instytutu Badawczego zostały przetworzone.

Dane źródłowe można odnaleźć na stronie https://dane.imgw.pl